Time;durP1;ratioP1;P1;durP2;ratioP2;P2;SDS_P1;SDS_P2;PMS_P1;PMS_P2;Temp;Humidity;BMP_temperature;BMP_pressure;BME280_temperature;BME280_humidity;BME280_pressure;Samples;Min_cycle;Max_cycle;Signal;HPM_P1;HPM_P2
2024/03/15 00:05:38;;;;;;;76.40;39.40;;;;;;;3.18;87.11;98568.23;433979;1256;109002;-40
2024/03/15 00:15:44;;;;;;;80.20;42.00;;;;;;;3.15;87.21;98562.27;434050;1256;97590;-40
2024/03/15 00:25:51;;;;;;;93.70;46.00;;;;;;;3.08;87.55;98554.19;434994;1258;108651;-38
2024/03/15 00:35:57;;;;;;;108.60;54.50;;;;;;;2.96;88.04;98551.63;434949;1253;97863;-39
2024/03/15 00:46:04;;;;;;;89.20;45.10;;;;;;;2.86;88.39;98534.48;435019;1256;111679;-40
2024/03/15 00:56:11;;;;;;;84.50;44.60;;;;;;;2.80;88.43;98526.55;435014;1258;107690;-39
2024/03/15 01:06:17;;;;;;;93.70;44.00;;;;;;;2.75;88.54;98522.84;435211;1257;97999;-39
2024/03/15 01:16:23;;;;;;;83.30;45.10;;;;;;;2.68;88.57;98513.04;435133;1259;109521;-38
2024/03/15 01:26:30;;;;;;;82.20;42.70;;;;;;;2.62;88.76;98508.25;434914;1258;97923;-39
2024/03/15 01:36:36;;;;;;;81.10;40.50;;;;;;;2.58;88.85;98510.40;435027;1257;109903;-39
2024/03/15 01:46:42;;;;;;;69.10;37.90;;;;;;;2.54;89.03;98505.34;435105;1253;107865;-39
2024/03/15 01:56:49;;;;;;;86.80;42.70;;;;;;;2.46;89.22;98501.39;435010;1257;97741;-39
2024/03/15 02:17:01;;;;;;;108.20;51.20;;;;;;;2.19;89.60;98502.14;434959;1258;97890;-38
2024/03/15 02:27:08;;;;;;;81.60;41.70;;;;;;;2.08;89.73;98505.30;434898;1253;97908;-38
2024/03/15 02:37:16;;;;;;;81.80;41.10;;;;;;;2.05;89.64;98493.70;435703;1256;108680;-38
2024/03/15 02:57:30;;;;;;;79.10;38.10;;;;;;;2.00;90.20;98484.34;434950;1257;110136;-38
2024/03/15 03:07:37;;;;;;;71.80;36.10;;;;;;;2.00;90.37;98485.78;434925;1257;107724;-39
2024/03/15 03:27:51;;;;;;;59.00;32.70;;;;;;;2.00;90.80;98482.48;435114;1257;107591;-37
2024/03/15 03:48:03;;;;;;;79.80;37.20;;;;;;;1.85;91.23;98489.38;435158;1254;110380;-38
2024/03/15 04:08:18;;;;;;;66.70;35.20;;;;;;;1.73;91.55;98492.32;435065;1256;96651;-39
2024/03/15 04:18:25;;;;;;;67.20;37.20;;;;;;;1.65;91.48;98494.27;435100;1256;110773;-39
2024/03/15 04:28:32;;;;;;;67.00;37.80;;;;;;;1.55;91.51;98491.68;435011;1257;107592;-38
2024/03/15 04:38:38;;;;;;;74.20;36.50;;;;;;;1.44;91.67;98482.98;435081;1256;97890;-39
2024/03/15 04:48:43;;;;;;;72.60;36.60;;;;;;;1.42;91.86;98476.48;435106;1256;108436;-39
2024/03/15 04:58:50;;;;;;;82.40;40.50;;;;;;;1.45;92.13;98477.94;435176;1256;97217;-39
2024/03/15 05:08:58;;;;;;;129.90;54.80;;;;;;;1.51;92.19;98482.50;434898;1256;109489;-40
2024/03/15 05:29:18;;;;;;;104.90;53.20;;;;;;;1.68;92.43;98483.25;435130;1257;97166;-41
2024/03/15 05:39:24;;;;;;;98.60;51.60;;;;;;;1.85;92.95;98487.20;434416;1254;754181;-38
2024/03/15 05:49:29;;;;;;;90.50;45.80;;;;;;;2.54;93.39;98489.45;435026;1256;108098;-38
2024/03/15 06:29:55;;;;;;;47.50;26.90;;;;;;;5.00;92.94;98475.85;435111;1266;96556;-39
2024/03/15 07:00:16;;;;;;;48.20;26.90;;;;;;;7.42;91.04;98480.79;435054;1254;98510;-39
2024/03/15 07:10:22;;;;;;;44.70;25.70;;;;;;;7.92;89.49;98478.34;435013;1256;107841;-40
2024/03/15 07:20:29;;;;;;;44.50;24.80;;;;;;;7.55;88.03;98477.14;435020;1257;98395;-39
2024/03/15 07:40:41;;;;;;;42.10;22.80;;;;;;;7.61;87.60;98478.34;435043;1257;108729;-39
2024/03/15 08:00:53;;;;;;;40.60;21.10;;;;;;;8.71;85.68;98487.70;435167;1255;108462;-39
2024/03/15 08:11:00;;;;;;;35.20;20.70;;;;;;;8.87;84.03;98487.54;435034;1254;97166;-39
2024/03/15 08:31:16;;;;;;;40.90;18.50;;;;;;;10.00;82.21;98486.91;435024;1258;107333;-39
2024/03/15 08:41:22;;;;;;;35.50;18.00;;;;;;;10.93;82.70;98485.38;435092;1254;97382;-39
2024/03/15 08:51:28;;;;;;;28.30;16.60;;;;;;;11.36;81.10;98480.73;435039;1257;108630;-41
2024/03/15 09:01:35;;;;;;;28.10;16.20;;;;;;;11.57;79.31;98473.14;435021;1254;98521;-40
2024/03/15 09:11:43;;;;;;;24.20;15.30;;;;;;;12.00;78.17;98455.98;435038;1254;111250;-39
2024/03/15 09:31:58;;;;;;;24.20;14.30;;;;;;;12.09;73.09;98452.47;435227;1252;97883;-40
2024/03/15 10:02:33;;;;;;;23.60;13.10;;;;;;;12.57;69.61;98433.52;435065;1254;97935;-40
2024/03/15 10:12:40;;;;;;;20.00;13.20;;;;;;;12.91;68.25;98421.51;435019;1254;110114;-41
2024/03/15 10:22:48;;;;;;;24.20;15.00;;;;;;;13.11;65.75;98410.45;435241;1254;106449;-38
2024/03/15 10:32:55;;;;;;;22.80;14.70;;;;;;;13.41;66.00;98399.59;435217;1257;97993;-40
2024/03/15 10:43:03;;;;;;;26.30;16.60;;;;;;;13.43;64.76;98400.14;435094;1253;107953;-39
2024/03/15 10:53:17;;;;;;;24.50;16.10;;;;;;;13.53;64.33;98392.15;435126;1256;97931;-39
2024/03/15 11:13:36;;;;;;;20.60;14.00;;;;;;;13.71;64.18;98383.60;436156;1253;105962;-39
2024/03/15 11:23:43;;;;;;;23.40;14.70;;;;;;;13.92;64.74;98378.59;436031;1248;99260;-39
2024/03/15 11:43:57;;;;;;;21.90;14.20;;;;;;;14.46;64.57;98366.22;436214;1247;98503;-39
2024/03/15 11:54:02;;;;;;;19.30;13.30;;;;;;;14.30;62.24;98358.73;436328;1248;111269;-40
2024/03/15 12:04:10;;;;;;;22.60;13.30;;;;;;;14.12;61.44;98354.13;436897;1248;108019;-41
2024/03/15 12:14:17;;;;;;;19.50;13.50;;;;;;;14.31;62.36;98354.10;436130;1248;99257;-40
2024/03/15 12:24:23;;;;;;;12.10;9.40;;;;;;;14.49;61.69;98346.11;436197;1253;108157;-39
2024/03/15 12:34:30;;;;;;;18.70;10.30;;;;;;;14.73;62.64;98337.92;436305;1254;99240;-39
2024/03/15 12:44:36;;;;;;;13.40;7.50;;;;;;;14.76;61.51;98327.66;436104;1248;111813;-39
2024/03/15 13:04:50;;;;;;;13.00;9.60;;;;;;;14.93;59.67;98316.82;436395;1248;98700;-39
2024/03/15 13:14:57;;;;;;;14.10;8.20;;;;;;;14.97;59.21;98308.30;436326;1250;109552;-41
2024/03/15 13:35:10;;;;;;;13.40;9.70;;;;;;;14.84;60.04;98297.10;436361;1247;111199;-40
2024/03/15 13:45:18;;;;;;;17.80;10.40;;;;;;;14.73;60.27;98286.77;436181;1253;107991;-39
2024/03/15 13:55:24;;;;;;;18.80;10.00;;;;;;;14.80;60.98;98280.55;436322;1254;98598;-41
2024/03/15 14:05:35;;;;;;;11.40;6.60;;;;;;;14.88;61.34;98266.17;436113;1252;109473;-39
2024/03/15 14:15:41;;;;;;;5.40;4.10;;;;;;;14.81;60.97;98262.08;436286;1249;97981;-40
2024/03/15 14:25:47;;;;;;;4.40;3.80;;;;;;;14.72;60.88;98259.15;436366;1248;111943;-40
2024/03/15 14:46:01;;;;;;;10.20;7.10;;;;;;;14.47;61.57;98246.07;436280;1248;97992;-38
2024/03/15 14:56:07;;;;;;;16.50;11.10;;;;;;;14.30;61.82;98238.15;436198;1252;109341;-40
2024/03/15 15:06:13;;;;;;;14.00;10.40;;;;;;;14.20;62.14;98237.16;436279;1247;99250;-40
2024/03/15 15:16:22;;;;;;;15.20;11.00;;;;;;;14.03;62.39;98238.83;436365;1247;111901;-40
2024/03/15 15:26:27;;;;;;;16.20;12.20;;;;;;;13.86;62.41;98244.23;436350;1253;108762;-41
2024/03/15 15:36:34;;;;;;;24.40;11.90;;;;;;;13.70;62.36;98240.66;436327;1248;98731;-40
2024/03/15 15:46:40;;;;;;;19.00;11.50;;;;;;;13.57;62.85;98235.39;436371;1253;107850;-40
2024/03/15 16:16:59;;;;;;;26.70;14.40;;;;;;;13.12;63.61;98233.30;436239;1252;108093;-40
2024/03/15 16:27:05;;;;;;;27.00;16.50;;;;;;;12.95;63.83;98237.10;436257;1252;99218;-40
2024/03/15 16:37:14;;;;;;;29.50;19.80;;;;;;;12.74;64.42;98240.49;436373;1253;108265;-40
2024/03/15 16:47:20;;;;;;;37.30;22.20;;;;;;;12.50;64.70;98240.65;436240;1248;99235;-40
2024/03/15 17:17:38;;;;;;;48.90;25.60;;;;;;;11.33;66.54;98255.67;436310;1248;99247;-39
2024/03/15 17:27:44;;;;;;;38.60;25.90;;;;;;;10.98;67.18;98260.45;436240;1251;109402;-40
2024/03/15 17:37:52;;;;;;;53.10;34.10;;;;;;;10.77;67.85;98266.98;435933;1253;625125;-40
2024/03/15 17:48:03;;;;;;;60.90;33.30;;;;;;;10.60;68.65;98272.02;436480;1251;112857;-40
2024/03/15 17:58:09;;;;;;;58.10;33.60;;;;;;;10.37;69.18;98281.10;436287;1252;107182;-40
2024/03/15 18:08:16;;;;;;;74.30;42.90;;;;;;;10.18;69.76;98285.31;436335;1253;97977;-41
2024/03/15 18:18:23;;;;;;;55.70;29.20;;;;;;;10.15;70.24;98279.70;436275;1248;110421;-41
2024/03/15 18:28:28;;;;;;;63.40;33.50;;;;;;;10.25;70.67;98278.28;436478;1253;99303;-40
2024/03/15 18:48:40;;;;;;;68.00;35.40;;;;;;;10.13;71.50;98285.16;436327;1252;107830;-40
2024/03/15 18:58:47;;;;;;;58.60;33.30;;;;;;;9.99;71.86;98288.06;436724;1253;98713;-40
2024/03/15 19:08:53;;;;;;;68.40;38.30;;;;;;;9.90;72.50;98287.33;436928;1253;107932;-39
2024/03/15 19:19:00;;;;;;;68.70;37.50;;;;;;;9.75;73.23;98288.88;437439;1248;97996;-39
2024/03/15 19:29:07;;;;;;;61.60;33.80;;;;;;;9.67;73.77;98285.42;436645;1252;113025;-40
2024/03/15 19:39:14;;;;;;;71.70;37.90;;;;;;;9.64;74.28;98284.63;436897;1252;107840;-41
2024/03/15 19:49:20;;;;;;;74.00;40.40;;;;;;;9.55;74.61;98281.95;436768;1253;98805;-40
2024/03/15 19:59:27;;;;;;;61.90;32.70;;;;;;;9.49;74.76;98281.63;436501;1253;108819;-40
2024/03/15 20:09:35;;;;;;;72.30;38.40;;;;;;;9.46;74.84;98272.89;436309;1251;99219;-40
2024/03/15 20:19:41;;;;;;;61.00;35.90;;;;;;;9.36;74.94;98266.98;436311;1252;110917;-41
2024/03/15 20:29:48;;;;;;;52.50;30.00;;;;;;;9.31;74.99;98269.19;436379;1248;108438;-40
2024/03/15 20:39:53;;;;;;;54.40;31.90;;;;;;;9.26;74.95;98265.86;436305;1253;99233;-40
2024/03/15 20:50:00;;;;;;;61.10;32.30;;;;;;;9.14;75.15;98258.92;436345;1252;110089;-39
2024/03/15 21:20:22;;;;;;;45.40;26.00;;;;;;;8.96;75.32;98263.93;436622;1251;107690;-40
2024/03/15 21:30:29;;;;;;;52.00;29.80;;;;;;;8.92;75.49;98267.19;436510;1253;97976;-40
2024/03/15 21:50:41;;;;;;;48.10;26.50;;;;;;;8.78;75.77;98273.48;436361;1247;99263;-39
2024/03/15 22:00:47;;;;;;;49.80;27.80;;;;;;;8.80;75.90;98269.39;436394;1250;112165;-39
2024/03/15 22:10:53;;;;;;;51.60;29.20;;;;;;;8.80;76.21;98267.27;436368;1253;108180;-40
2024/03/15 22:21:00;;;;;;;54.70;31.70;;;;;;;8.72;76.28;98263.46;436669;1253;98009;-41
2024/03/15 22:41:13;;;;;;;61.90;31.10;;;;;;;8.68;76.72;98266.00;436400;1253;98847;-41
2024/03/15 22:51:19;;;;;;;60.70;34.50;;;;;;;8.60;76.93;98265.83;436486;1253;111292;-39
2024/03/15 23:01:25;;;;;;;51.70;30.70;;;;;;;8.48;77.08;98269.36;436316;1252;109052;-40
2024/03/15 23:11:32;;;;;;;55.80;31.00;;;;;;;8.44;77.22;98270.56;436937;1249;99253;-40
2024/03/15 23:51:56;;;;;;;56.00;30.50;;;;;;;8.41;77.89;98269.55;436551;1247;108500;-40
